Time;durP1;ratioP1;P1;durP2;ratioP2;P2;SDS_P1;SDS_P2;PMS_P1;PMS_P2;Temp;Humidity;BMP_temperature;BMP_pressure;BME280_temperature;BME280_humidity;BME280_pressure;Samples;Min_cycle;Max_cycle;Signal;HPM_P1;HPM_P2
2022/02/22 00:00:58;;;;;;;6.80;2.10;;;7.50;99.90;;;;;;5043431;28;20500;-67
2022/02/22 00:03:24;;;;;;;6.60;1.87;;;7.50;99.90;;;;;;5024982;28;20182;-69
2022/02/22 00:05:49;;;;;;;8.33;2.20;;;7.50;99.90;;;;;;5043141;28;20176;-68
2022/02/22 00:08:15;;;;;;;2.80;1.60;;;7.50;99.90;;;;;;5042563;28;20193;-69
2022/02/22 00:10:40;;;;;;;2.80;1.60;;;7.50;99.90;;;;;;5043018;28;20176;-68
2022/02/22 00:13:06;;;;;;;4.30;2.00;;;7.40;99.90;;;;;;5043573;28;20176;-68
2022/02/22 00:15:32;;;;;;;3.03;1.70;;;7.40;99.90;;;;;;5024128;28;20203;-71
2022/02/22 00:17:57;;;;;;;5.67;2.17;;;7.50;99.90;;;;;;5043275;28;20228;-70
2022/02/22 00:20:23;;;;;;;3.07;1.70;;;7.60;99.90;;;;;;5024133;28;20687;-69
2022/02/22 00:22:48;;;;;;;3.03;1.37;;;7.50;99.90;;;;;;5043451;28;20667;-69
2022/02/22 00:25:14;;;;;;;4.47;1.90;;;7.50;99.90;;;;;;5042098;28;20181;-69
2022/02/22 00:27:41;;;;;;;7.27;3.93;;;7.50;99.90;;;;;;5043410;28;20180;-68
2022/02/22 00:30:08;;;;;;;9.83;2.80;;;7.50;99.90;;;;;;5042031;28;20202;-68
2022/02/22 00:32:33;;;;;;;4.43;1.90;;;7.50;99.90;;;;;;5043435;28;20507;-70
2022/02/22 00:34:59;;;;;;;3.50;1.80;;;7.40;99.90;;;;;;5042560;28;21030;-69
2022/02/22 00:37:25;;;;;;;5.93;2.23;;;7.30;99.90;;;;;;5042785;28;20691;-69
2022/02/22 00:39:50;;;;;;;4.13;2.20;;;7.30;99.90;;;;;;5041562;28;20206;-69
2022/02/22 00:42:16;;;;;;;6.73;2.40;;;7.20;99.90;;;;;;5024903;28;20184;-69
2022/02/22 00:44:42;;;;;;;6.73;2.37;;;7.20;99.90;;;;;;5042666;28;20186;-67
2022/02/22 00:47:08;;;;;;;4.50;1.97;;;7.30;99.90;;;;;;5042145;28;20434;-69
2022/02/22 00:49:34;;;;;;;10.93;2.10;;;7.30;99.90;;;;;;5042625;28;20295;-69
2022/02/22 00:52:00;;;;;;;2.90;1.20;;;7.30;99.90;;;;;;5042889;28;20229;-69
2022/02/22 00:54:26;;;;;;;4.77;2.00;;;7.40;99.90;;;;;;5042265;28;20509;-69
2022/02/22 00:56:52;;;;;;;5.90;2.00;;;7.40;99.90;;;;;;5042903;28;20555;-70
2022/02/22 00:59:17;;;;;;;4.50;1.60;;;7.40;99.90;;;;;;5041842;28;20960;-69
2022/02/22 01:01:43;;;;;;;4.80;2.33;;;7.40;99.90;;;;;;5045527;28;20553;-69
2022/02/22 01:04:08;;;;;;;10.30;2.30;;;7.30;99.90;;;;;;5046194;28;20562;-69
2022/02/22 01:06:34;;;;;;;8.53;3.20;;;7.30;99.90;;;;;;5046176;28;20182;-70
2022/02/22 01:09:00;;;;;;;6.90;2.60;;;7.30;99.90;;;;;;5045351;28;20223;-69
2022/02/22 01:11:26;;;;;;;4.87;2.20;;;7.20;99.90;;;;;;5045404;28;20180;-68
2022/02/22 01:13:51;;;;;;;6.10;2.10;;;7.20;99.90;;;;;;5046396;28;20176;-70
2022/02/22 01:16:17;;;;;;;4.40;2.10;;;7.20;99.90;;;;;;5045401;28;20433;-69
2022/02/22 01:18:42;;;;;;;5.10;2.33;;;7.20;99.90;;;;;;5045583;28;20789;-69
2022/02/22 01:21:08;;;;;;;7.03;2.50;;;7.20;99.90;;;;;;5045120;28;20422;-67
2022/02/22 01:23:33;;;;;;;6.37;2.77;;;7.20;99.90;;;;;;5046062;28;20656;-68
2022/02/22 01:26:00;;;;;;;8.73;2.43;;;7.20;99.90;;;;;;5046132;28;20267;-67
2022/02/22 01:28:25;;;;;;;5.87;2.40;;;7.20;99.90;;;;;;5044633;28;20220;-69
2022/02/22 01:30:51;;;;;;;8.30;2.03;;;7.20;99.90;;;;;;5045759;28;20413;-69
2022/02/22 01:33:17;;;;;;;4.77;1.50;;;7.10;99.90;;;;;;5045583;28;20225;-69
2022/02/22 01:35:42;;;;;;;9.97;2.47;;;7.10;99.90;;;;;;5046063;28;20182;-70
2022/02/22 01:38:08;;;;;;;8.97;2.10;;;7.20;99.90;;;;;;5044889;28;20325;-69
2022/02/22 01:40:34;;;;;;;4.47;1.93;;;7.20;99.90;;;;;;5045592;28;20187;-69
2022/02/22 01:42:59;;;;;;;6.83;2.40;;;7.20;99.90;;;;;;5044436;28;20177;-67
2022/02/22 01:45:25;;;;;;;3.40;1.60;;;7.20;99.90;;;;;;5046371;28;20184;-69
2022/02/22 01:47:51;;;;;;;4.40;1.70;;;7.10;99.90;;;;;;5044734;28;20188;-70
2022/02/22 01:50:17;;;;;;;5.63;1.97;;;7.00;99.90;;;;;;5045461;28;20195;-68
2022/02/22 01:52:42;;;;;;;7.23;2.23;;;6.90;99.90;;;;;;5045155;28;20401;-67
2022/02/22 01:55:09;;;;;;;7.57;2.10;;;6.80;99.90;;;;;;5045507;28;20773;-70
2022/02/22 01:57:35;;;;;;;4.77;2.13;;;6.70;99.90;;;;;;5044196;28;20652;-69
2022/02/22 02:00:04;;;;;;;7.37;2.50;;;6.60;99.90;;;;;;5045026;28;20413;-68
2022/02/22 02:02:30;;;;;;;4.73;2.33;;;6.60;99.90;;;;;;5027508;28;20189;-68
2022/02/22 02:04:56;;;;;;;5.20;2.43;;;6.50;99.90;;;;;;5044565;28;20422;-71
2022/02/22 02:07:21;;;;;;;7.03;2.03;;;6.50;99.90;;;;;;5045007;28;20178;-70
2022/02/22 02:09:47;;;;;;;7.20;2.40;;;6.50;99.90;;;;;;5045097;28;20202;-67
2022/02/22 02:12:12;;;;;;;4.60;2.17;;;6.50;99.90;;;;;;5044084;28;20183;-68
2022/02/22 02:14:38;;;;;;;5.70;1.90;;;6.50;99.90;;;;;;5044052;28;20192;-67
2022/02/22 02:17:03;;;;;;;4.93;1.70;;;6.50;99.90;;;;;;5045099;28;20456;-67
2022/02/22 02:19:29;;;;;;;3.27;1.67;;;6.50;99.90;;;;;;5044195;28;20231;-69
2022/02/22 02:22:01;;;;;;;6.10;1.80;;;6.60;99.90;;;;;;5045026;28;20186;-70
2022/02/22 02:24:28;;;;;;;4.73;2.63;;;6.60;99.90;;;;;;5044057;28;20182;-67
2022/02/22 02:26:56;;;;;;;6.73;1.90;;;6.60;99.90;;;;;;5044586;28;20422;-68
2022/02/22 02:29:27;;;;;;;4.57;1.80;;;6.50;99.90;;;;;;5025997;28;20615;-69
2022/02/22 02:31:54;;;;;;;5.73;2.00;;;6.60;99.90;;;;;;5044909;28;20419;-69
2022/02/22 02:34:29;;;;;;;9.90;2.43;;;6.50;99.90;;;;;;5044155;28;20436;-68
2022/02/22 02:36:56;;;;;;;4.77;1.70;;;6.50;99.90;;;;;;5044790;28;20571;-67
2022/02/22 02:39:22;;;;;;;8.90;2.00;;;6.40;99.90;;;;;;5043640;28;20446;-68
2022/02/22 02:41:48;;;;;;;6.33;2.30;;;6.40;99.90;;;;;;5044744;28;20502;-69
2022/02/22 02:44:17;;;;;;;6.27;2.50;;;6.40;99.90;;;;;;5043545;28;20927;-69
2022/02/22 02:46:43;;;;;;;5.70;2.40;;;6.40;99.90;;;;;;5044818;28;20191;-69
2022/02/22 02:49:11;;;;;;;5.60;2.30;;;6.40;99.90;;;;;;5043222;28;20479;-68
2022/02/22 02:51:37;;;;;;;9.97;2.23;;;6.40;99.90;;;;;;5044220;28;20416;-68
2022/02/22 02:54:04;;;;;;;8.53;3.37;;;6.40;99.90;;;;;;5043612;28;20426;-69
2022/02/22 02:56:29;;;;;;;4.53;1.90;;;6.40;99.90;;;;;;5044529;28;20416;-68
2022/02/22 02:58:58;;;;;;;6.00;2.07;;;6.40;99.90;;;;;;5044097;28;21032;-69
2022/02/22 03:01:25;;;;;;;7.17;2.13;;;6.40;99.90;;;;;;5044385;28;20184;-70
2022/02/22 03:03:51;;;;;;;6.63;2.40;;;6.30;99.90;;;;;;5044306;28;20506;-69
2022/02/22 03:06:17;;;;;;;4.40;1.93;;;6.40;99.90;;;;;;5043437;28;20863;-68
2022/02/22 03:08:43;;;;;;;6.80;2.40;;;6.40;99.90;;;;;;5044139;28;20582;-69
2022/02/22 03:11:09;;;;;;;5.93;1.90;;;6.30;99.90;;;;;;5024798;28;20429;-67
2022/02/22 03:13:36;;;;;;;3.00;1.80;;;6.30;99.90;;;;;;5044415;28;20774;-69
2022/02/22 03:16:01;;;;;;;7.13;2.07;;;6.30;99.90;;;;;;5043154;28;20172;-69
2022/02/22 03:18:27;;;;;;;6.30;1.90;;;6.30;99.90;;;;;;5044372;28;20819;-69
2022/02/22 03:20:53;;;;;;;6.73;2.30;;;6.30;99.90;;;;;;5025516;28;20447;-71
2022/02/22 03:23:21;;;;;;;6.67;2.03;;;6.40;99.90;;;;;;5043783;28;20550;-70
2022/02/22 03:25:48;;;;;;;6.10;1.97;;;6.40;99.90;;;;;;5043553;28;20183;-67
2022/02/22 03:28:13;;;;;;;8.33;2.40;;;6.40;99.90;;;;;;5043546;28;20464;-68
2022/02/22 03:30:39;;;;;;;5.03;2.17;;;6.40;99.90;;;;;;5043698;28;20665;-69
2022/02/22 03:33:05;;;;;;;4.50;1.97;;;6.40;99.90;;;;;;5043347;28;20276;-69
2022/02/22 03:35:31;;;;;;;9.17;2.60;;;6.40;99.90;;;;;;5043866;28;20952;-66
2022/02/22 03:37:57;;;;;;;5.00;2.30;;;6.40;99.90;;;;;;5043754;28;20440;-69
2022/02/22 03:40:23;;;;;;;9.57;2.50;;;6.40;99.90;;;;;;5043349;28;20760;-68
2022/02/22 03:42:49;;;;;;;9.87;2.23;;;6.40;99.90;;;;;;5043194;28;20429;-69
2022/02/22 03:45:15;;;;;;;5.20;2.23;;;6.30;99.90;;;;;;5043448;28;20435;-70
2022/02/22 03:47:42;;;;;;;5.90;2.13;;;6.30;99.90;;;;;;5042405;28;20195;-70
2022/02/22 03:50:12;;;;;;;4.50;1.90;;;6.30;99.90;;;;;;5043403;28;20522;-69
2022/02/22 03:52:38;;;;;;;5.43;2.50;;;6.30;99.90;;;;;;5042569;28;20838;-68
2022/02/22 03:55:05;;;;;;;7.93;2.20;;;6.30;99.90;;;;;;5043364;28;20898;-67
2022/02/22 03:57:32;;;;;;;6.80;2.53;;;6.30;99.90;;;;;;5042070;28;20429;-69
2022/02/22 03:59:57;;;;;;;6.50;2.20;;;6.30;99.90;;;;;;5042694;28;20440;-70
2022/02/22 04:02:23;;;;;;;6.53;2.10;;;6.30;99.90;;;;;;5042103;28;20799;-68
2022/02/22 04:04:48;;;;;;;9.63;2.67;;;6.30;99.90;;;;;;5043739;28;20189;-70
2022/02/22 04:07:15;;;;;;;8.80;2.40;;;6.20;99.90;;;;;;5024337;28;20191;-68
2022/02/22 04:09:40;;;;;;;9.43;3.40;;;6.20;99.90;;;;;;5043423;28;20225;-69
2022/02/22 04:12:06;;;;;;;5.80;2.00;;;6.30;99.90;;;;;;5042477;28;21146;-68
2022/02/22 04:14:32;;;;;;;6.80;2.37;;;6.30;99.90;;;;;;5043010;28;20256;-69
2022/02/22 04:16:57;;;;;;;3.17;1.87;;;6.30;99.90;;;;;;5043227;28;20978;-68
2022/02/22 04:19:23;;;;;;;5.57;2.37;;;6.20;99.90;;;;;;5042563;28;20202;-69
2022/02/22 04:21:49;;;;;;;6.43;2.57;;;6.10;99.90;;;;;;5043199;28;20179;-69
2022/02/22 04:24:14;;;;;;;8.87;2.23;;;6.00;99.90;;;;;;5042424;28;20224;-69
2022/02/22 04:26:40;;;;;;;5.53;2.50;;;6.10;99.90;;;;;;5043468;28;20269;-70
2022/02/22 04:29:06;;;;;;;7.23;3.47;;;6.20;99.90;;;;;;5042171;28;20229;-70
2022/02/22 04:31:38;;;;;;;4.40;2.50;;;6.10;99.90;;;;;;5043238;28;20186;-68
2022/02/22 04:34:08;;;;;;;3.97;2.30;;;6.30;99.90;;;;;;5024192;28;20182;-71
2022/02/22 04:36:34;;;;;;;3.77;1.87;;;6.40;99.90;;;;;;5045933;28;20925;-69
2022/02/22 04:39:01;;;;;;;6.27;2.50;;;6.60;99.90;;;;;;5045556;28;20932;-68
2022/02/22 04:41:26;;;;;;;4.50;2.40;;;6.70;99.90;;;;;;5047063;28;21396;-71
2022/02/22 04:43:52;;;;;;;9.47;2.70;;;6.60;99.90;;;;;;5045821;28;20424;-69
2022/02/22 04:46:18;;;;;;;4.87;2.73;;;6.50;99.90;;;;;;5046585;28;20182;-67
2022/02/22 04:48:43;;;;;;;3.13;2.10;;;6.60;99.90;;;;;;5046872;28;20705;-69
2022/02/22 04:51:09;;;;;;;3.80;2.83;;;6.50;99.90;;;;;;5045587;28;20204;-68
2022/02/22 04:53:34;;;;;;;6.73;2.80;;;6.40;99.90;;;;;;5045784;28;20191;-69
2022/02/22 04:56:00;;;;;;;9.97;2.80;;;6.20;99.90;;;;;;5046144;28;20277;-68
2022/02/22 04:58:26;;;;;;;6.60;3.00;;;6.20;99.90;;;;;;5046532;28;20210;-69
2022/02/22 05:00:52;;;;;;;5.63;2.63;;;6.30;99.90;;;;;;5045484;28;20424;-68
2022/02/22 05:03:18;;;;;;;6.10;2.43;;;6.20;99.90;;;;;;5046353;28;20179;-69
2022/02/22 05:05:44;;;;;;;5.70;2.47;;;6.20;99.90;;;;;;5045717;28;20440;-68
2022/02/22 05:08:09;;;;;;;7.23;2.93;;;6.10;99.90;;;;;;5046507;28;20934;-69
2022/02/22 05:10:35;;;;;;;7.47;3.30;;;6.10;99.90;;;;;;5028376;28;20210;-69
2022/02/22 05:13:01;;;;;;;7.63;2.90;;;6.00;99.90;;;;;;5046185;28;20186;-67
2022/02/22 05:15:31;;;;;;;4.23;2.60;;;6.10;99.90;;;;;;5045842;28;20580;-69
2022/02/22 05:17:57;;;;;;;6.63;2.80;;;6.10;99.90;;;;;;5027868;28;20443;-69
2022/02/22 05:20:22;;;;;;;7.43;2.27;;;6.10;99.90;;;;;;5045683;28;20818;-71
2022/02/22 05:22:48;;;;;;;4.07;2.57;;;6.00;99.90;;;;;;5046839;28;20270;-70
2022/02/22 05:25:15;;;;;;;6.70;3.30;;;6.00;99.90;;;;;;5045434;28;20190;-68
2022/02/22 05:27:41;;;;;;;4.57;2.77;;;6.00;99.90;;;;;;5046455;28;20191;-68
2022/02/22 05:30:08;;;;;;;7.90;3.60;;;6.00;99.90;;;;;;5046787;28;20461;-69
2022/02/22 05:32:34;;;;;;;10.53;2.87;;;6.00;99.90;;;;;;5046123;28;20696;-67
2022/02/22 05:35:01;;;;;;;4.80;2.37;;;6.00;99.90;;;;;;5046769;28;20432;-68
2022/02/22 05:37:30;;;;;;;6.07;2.30;;;6.00;99.90;;;;;;5044521;28;20417;-68
2022/02/22 05:39:56;;;;;;;4.00;2.33;;;6.00;99.90;;;;;;5045584;28;21168;-69
2022/02/22 05:42:22;;;;;;;7.80;3.00;;;6.00;99.90;;;;;;5044092;28;20425;-70
2022/02/22 05:44:48;;;;;;;5.60;2.80;;;5.90;99.90;;;;;;5045237;28;20418;-70
2022/02/22 05:47:14;;;;;;;7.73;2.60;;;5.80;99.90;;;;;;5044955;28;20440;-69
2022/02/22 05:49:39;;;;;;;6.43;2.80;;;5.80;99.90;;;;;;5027025;28;20241;-70
2022/02/22 05:52:05;;;;;;;5.77;2.63;;;5.80;99.90;;;;;;5044860;28;20292;-68
2022/02/22 05:54:31;;;;;;;4.50;2.53;;;5.80;99.90;;;;;;5045459;28;20264;-70
2022/02/22 05:56:57;;;;;;;6.90;2.47;;;5.80;99.90;;;;;;5045487;28;20420;-72
2022/02/22 05:59:22;;;;;;;8.27;2.87;;;5.80;99.90;;;;;;5044582;28;20272;-67
2022/02/22 06:01:48;;;;;;;5.20;3.10;;;5.80;99.90;;;;;;5026851;28;20580;-69
2022/02/22 06:04:13;;;;;;;4.90;2.50;;;5.80;99.90;;;;;;5044332;28;20247;-70
2022/02/22 06:06:40;;;;;;;8.97;3.27;;;5.90;99.90;;;;;;5045284;28;20218;-69
2022/02/22 06:09:06;;;;;;;5.60;2.40;;;5.80;99.90;;;;;;5045431;28;20247;-70
2022/02/22 06:11:32;;;;;;;4.77;2.70;;;5.80;99.90;;;;;;5045342;28;20408;-69
2022/02/22 06:13:58;;;;;;;6.80;3.37;;;5.80;99.90;;;;;;5045193;28;20417;-68
2022/02/22 06:16:24;;;;;;;10.87;3.10;;;5.80;99.90;;;;;;5045129;28;20422;-69
2022/02/22 06:18:49;;;;;;;7.77;2.63;;;5.90;99.90;;;;;;5043661;28;20198;-72
2022/02/22 06:21:15;;;;;;;4.93;2.80;;;5.90;99.90;;;;;;5045614;28;20187;-71
2022/02/22 06:23:41;;;;;;;7.93;3.10;;;5.80;99.90;;;;;;5027133;28;20438;-69
2022/02/22 06:26:07;;;;;;;4.57;2.67;;;5.80;99.90;;;;;;5046751;28;20174;-70
2022/02/22 06:28:33;;;;;;;8.53;3.37;;;5.80;99.90;;;;;;5046477;28;20222;-69
2022/02/22 06:30:59;;;;;;;5.13;3.20;;;6.00;99.90;;;;;;5047740;28;20908;-70
2022/02/22 06:33:25;;;;;;;7.60;3.57;;;5.90;99.90;;;;;;5044646;28;20202;-70
2022/02/22 06:35:50;;;;;;;6.20;3.23;;;5.90;99.90;;;;;;5044762;28;20409;-70
2022/02/22 06:38:16;;;;;;;7.37;3.27;;;5.90;99.90;;;;;;5043525;28;20571;-69
2022/02/22 06:40:41;;;;;;;4.83;3.40;;;6.00;99.90;;;;;;5044798;28;20544;-68
2022/02/22 06:43:07;;;;;;;5.60;3.13;;;6.10;99.90;;;;;;5025832;28;20197;-69
2022/02/22 06:45:33;;;;;;;6.10;2.77;;;6.20;99.90;;;;;;5044502;28;20182;-72
2022/02/22 06:47:58;;;;;;;8.33;2.60;;;6.10;99.90;;;;;;5043398;28;20308;-70
2022/02/22 06:50:25;;;;;;;9.17;3.90;;;6.20;99.90;;;;;;5044291;28;20764;-69
2022/02/22 06:52:51;;;;;;;6.40;3.40;;;6.00;99.90;;;;;;5042968;28;20167;-70
2022/02/22 06:55:17;;;;;;;6.67;2.63;;;6.00;99.90;;;;;;5043142;28;20565;-69
2022/02/22 06:58:08;;;;;;;3.43;3.00;;;6.10;99.90;;;;;;5043336;28;20993;-70
2022/02/22 07:00:36;;;;;;;5.77;2.80;;;6.10;99.90;;;;;;5042902;28;20688;-68
2022/02/22 07:03:03;;;;;;;9.90;3.27;;;6.10;99.90;;;;;;5025464;28;20427;-70
2022/02/22 07:05:30;;;;;;;7.67;3.00;;;6.10;99.90;;;;;;5043175;28;20418;-68
2022/02/22 07:07:57;;;;;;;7.43;3.37;;;6.10;99.90;;;;;;5043392;28;20890;-71
2022/02/22 07:10:24;;;;;;;9.87;3.60;;;6.10;99.90;;;;;;5043357;28;21036;-70
2022/02/22 07:12:50;;;;;;;11.53;3.67;;;6.10;99.90;;;;;;5025099;28;20431;-69
2022/02/22 07:15:15;;;;;;;11.07;3.90;;;6.00;99.90;;;;;;5042817;28;20874;-68
2022/02/22 07:17:48;;;;;;;7.97;2.50;;;5.90;99.90;;;;;;5043984;28;20175;-70
2022/02/22 07:20:14;;;;;;;9.03;3.33;;;5.90;99.90;;;;;;5024372;28;20187;-69
2022/02/22 07:22:40;;;;;;;13.43;3.60;;;6.00;99.90;;;;;;5043550;28;20417;-66
2022/02/22 07:25:08;;;;;;;6.60;2.83;;;5.90;99.90;;;;;;5042232;28;20963;-68
2022/02/22 07:27:33;;;;;;;6.93;3.97;;;6.00;99.90;;;;;;5043935;28;20406;-69
2022/02/22 07:29:59;;;;;;;10.47;4.20;;;6.10;99.90;;;;;;5042449;28;20468;-70
2022/02/22 07:32:24;;;;;;;9.13;3.63;;;6.20;99.90;;;;;;5043735;28;20186;-70
2022/02/22 07:34:50;;;;;;;7.43;3.43;;;6.30;99.90;;;;;;5041458;28;20419;-70
2022/02/22 07:37:15;;;;;;;11.67;3.87;;;6.40;99.90;;;;;;5043208;28;20423;-69
2022/02/22 07:39:41;;;;;;;5.80;3.37;;;6.50;99.90;;;;;;5041715;28;20252;-69
2022/02/22 07:42:07;;;;;;;8.30;3.50;;;6.50;99.90;;;;;;5042992;28;20182;-66
2022/02/22 07:44:32;;;;;;;6.17;3.30;;;6.50;99.90;;;;;;5043155;28;20179;-68
2022/02/22 07:46:58;;;;;;;6.60;3.37;;;6.40;99.90;;;;;;5040790;28;20175;-70
2022/02/22 07:49:23;;;;;;;5.70;3.00;;;6.40;99.90;;;;;;5043258;28;20685;-67
2022/02/22 07:51:49;;;;;;;6.53;2.90;;;6.40;99.90;;;;;;5041967;28;20345;-67
2022/02/22 07:54:14;;;;;;;11.73;3.23;;;6.50;99.90;;;;;;5043258;28;20190;-68
2022/02/22 07:56:41;;;;;;;8.30;3.80;;;6.40;99.90;;;;;;5042320;28;20652;-67
2022/02/22 07:59:06;;;;;;;10.13;3.03;;;6.40;99.90;;;;;;5042389;28;20202;-68
2022/02/22 08:01:32;;;;;;;12.70;3.23;;;6.40;99.90;;;;;;5042437;28;20459;-67
2022/02/22 08:03:58;;;;;;;6.40;3.37;;;6.60;99.90;;;;;;5042412;28;20509;-68
2022/02/22 08:06:25;;;;;;;4.97;2.70;;;6.60;99.90;;;;;;5042202;28;20421;-69
2022/02/22 08:08:51;;;;;;;8.07;3.30;;;6.60;99.90;;;;;;5042064;28;20198;-71
2022/02/22 08:11:16;;;;;;;6.50;2.90;;;6.80;99.90;;;;;;5046824;28;20470;-68
2022/02/22 08:13:42;;;;;;;6.07;2.60;;;6.80;99.90;;;;;;5046990;28;20177;-66
2022/02/22 08:16:08;;;;;;;5.70;2.70;;;6.90;99.90;;;;;;5046244;28;20168;-68
2022/02/22 08:18:34;;;;;;;5.20;3.20;;;7.00;99.90;;;;;;5028733;28;20205;-71
2022/02/22 08:20:59;;;;;;;6.57;3.23;;;7.10;99.90;;;;;;5047387;28;20555;-71
2022/02/22 08:23:27;;;;;;;9.70;2.80;;;7.10;99.90;;;;;;5045488;28;20173;-65
2022/02/22 08:25:52;;;;;;;11.10;3.43;;;7.10;99.90;;;;;;5046206;28;20758;-70
2022/02/22 08:28:18;;;;;;;6.70;3.17;;;7.20;99.90;;;;;;5027701;28;20526;-68
2022/02/22 08:30:44;;;;;;;6.90;2.40;;;7.20;99.90;;;;;;5046452;28;20662;-67
2022/02/22 08:33:10;;;;;;;5.80;2.70;;;7.20;99.90;;;;;;5046138;28;20555;-68
2022/02/22 08:35:35;;;;;;;9.13;2.70;;;7.40;99.90;;;;;;5046458;28;20181;-68
2022/02/22 08:38:02;;;;;;;5.47;2.63;;;7.50;99.90;;;;;;5046699;28;20444;-70
2022/02/22 08:40:28;;;;;;;5.20;2.70;;;7.50;99.90;;;;;;5046091;28;20221;-69
2022/02/22 08:42:54;;;;;;;7.40;3.27;;;7.50;99.90;;;;;;5046373;28;20415;-67
2022/02/22 08:45:20;;;;;;;5.63;2.83;;;7.50;99.90;;;;;;5046074;28;20429;-65
2022/02/22 08:47:45;;;;;;;11.77;3.00;;;7.70;99.90;;;;;;5045819;28;20187;-67
2022/02/22 08:50:11;;;;;;;7.90;2.60;;;7.70;99.90;;;;;;5046237;28;20603;-67
2022/02/22 08:52:36;;;;;;;6.13;2.90;;;7.90;99.90;;;;;;5046016;28;20669;-67
2022/02/22 08:55:03;;;;;;;6.60;2.73;;;8.00;99.90;;;;;;5046050;28;20655;-66
2022/02/22 08:57:28;;;;;;;7.50;2.77;;;8.10;99.90;;;;;;5046182;28;20176;-71
2022/02/22 08:59:54;;;;;;;6.83;2.90;;;8.10;99.90;;;;;;5046396;28;20950;-71
2022/02/22 09:02:20;;;;;;;5.30;3.13;;;8.00;99.90;;;;;;5045252;28;20933;-68
2022/02/22 09:04:46;;;;;;;8.90;3.23;;;8.10;99.90;;;;;;5046449;28;20235;-71
2022/02/22 09:07:11;;;;;;;6.57;2.50;;;8.10;99.90;;;;;;5045465;28;20430;-69
2022/02/22 09:09:37;;;;;;;5.17;2.60;;;8.10;99.90;;;;;;5045323;28;20205;-68
2022/02/22 09:12:03;;;;;;;7.40;2.97;;;8.00;99.90;;;;;;5046564;28;20188;-68
2022/02/22 09:14:28;;;;;;;5.93;2.63;;;8.10;99.90;;;;;;5044941;28;20610;-71
2022/02/22 09:16:54;;;;;;;4.77;2.73;;;8.10;99.90;;;;;;5046395;28;20420;-67
2022/02/22 09:19:19;;;;;;;9.30;3.00;;;8.10;99.90;;;;;;5044626;28;20519;-67
2022/02/22 09:21:45;;;;;;;5.40;2.53;;;8.10;99.90;;;;;;5045501;28;20538;-66
2022/02/22 09:24:11;;;;;;;6.80;2.70;;;8.30;99.90;;;;;;5044656;28;20609;-66
2022/02/22 09:26:36;;;;;;;6.20;2.73;;;8.50;99.90;;;;;;5046012;28;20223;-72
2022/02/22 09:29:02;;;;;;;3.80;2.27;;;8.60;99.90;;;;;;5044337;28;20682;-68
2022/02/22 09:31:28;;;;;;;6.73;2.63;;;8.50;99.90;;;;;;5027737;28;20216;-68
2022/02/22 09:33:53;;;;;;;9.00;2.43;;;8.70;99.90;;;;;;5027043;28;20413;-70
2022/02/22 09:36:19;;;;;;;8.10;2.13;;;8.60;99.90;;;;;;5027690;28;20177;-69
2022/02/22 09:38:44;;;;;;;9.83;2.60;;;8.80;99.90;;;;;;5044262;28;20196;-68
2022/02/22 09:41:11;;;;;;;4.77;2.60;;;8.60;99.90;;;;;;5044469;28;20174;-68
2022/02/22 09:43:36;;;;;;;5.30;2.40;;;8.60;99.90;;;;;;5027257;28;20514;-69
2022/02/22 09:46:04;;;;;;;6.60;2.60;;;8.60;99.90;;;;;;5044641;28;20431;-68
2022/02/22 09:48:30;;;;;;;7.33;2.47;;;8.60;99.90;;;;;;5045282;28;20193;-68
2022/02/22 09:50:56;;;;;;;5.00;2.43;;;8.50;99.90;;;;;;5025895;28;21014;-69
2022/02/22 09:53:21;;;;;;;3.80;2.00;;;8.70;99.90;;;;;;5044455;28;20207;-69
2022/02/22 09:55:47;;;;;;;9.03;3.20;;;8.70;99.90;;;;;;5044374;28;20420;-68
2022/02/22 09:58:13;;;;;;;4.83;2.37;;;8.70;99.90;;;;;;5044273;28;20198;-67
2022/02/22 10:00:39;;;;;;;5.13;2.47;;;9.00;99.90;;;;;;5044257;28;20182;-69
2022/02/22 10:03:16;;;;;;;5.70;2.80;;;8.90;99.90;;;;;;5044433;28;20191;-71
2022/02/22 10:05:55;;;;;;;6.10;2.77;;;8.80;99.90;;;;;;5043016;28;20204;-70
2022/02/22 10:08:28;;;;;;;7.70;2.57;;;8.80;99.90;;;;;;5045105;28;20489;-68
2022/02/22 10:11:06;;;;;;;8.40;3.00;;;9.00;99.90;;;;;;5043114;28;21066;-68
2022/02/22 10:13:32;;;;;;;8.77;2.50;;;9.00;99.90;;;;;;5026284;28;20424;-67
2022/02/22 10:15:59;;;;;;;6.87;2.80;;;9.30;99.90;;;;;;5044694;28;20426;-67
2022/02/22 10:18:26;;;;;;;7.47;3.30;;;9.40;99.90;;;;;;5044686;28;20442;-67
2022/02/22 10:20:52;;;;;;;5.00;2.47;;;9.70;99.90;;;;;;5044098;28;20431;-68
2022/02/22 10:23:31;;;;;;;6.23;2.97;;;9.90;99.90;;;;;;5025937;28;20536;-64
2022/02/22 10:25:58;;;;;;;10.90;3.30;;;10.00;99.90;;;;;;5044159;28;20930;-65
2022/02/22 10:28:25;;;;;;;7.13;3.53;;;9.90;99.90;;;;;;5044011;28;20467;-65
2022/02/22 10:30:53;;;;;;;9.33;3.30;;;9.90;99.90;;;;;;5043841;28;20453;-75
2022/02/22 10:33:26;;;;;;;5.60;2.70;;;9.70;99.90;;;;;;5043966;28;20983;-71
2022/02/22 10:36:04;;;;;;;8.80;2.90;;;9.70;99.90;;;;;;5043798;28;20997;-74
2022/02/22 10:38:33;;;;;;;5.80;2.37;;;9.80;99.90;;;;;;5044200;28;20780;-71
2022/02/22 10:41:06;;;;;;;7.83;3.37;;;9.70;99.90;;;;;;5043374;28;20945;-72
2022/02/22 10:43:35;;;;;;;6.77;2.50;;;9.70;99.90;;;;;;5044259;28;20927;-69
2022/02/22 10:46:04;;;;;;;9.57;3.57;;;9.80;99.90;;;;;;5026455;28;20446;-73
2022/02/22 10:48:36;;;;;;;5.73;3.03;;;9.70;99.90;;;;;;5042824;28;20442;-72
2022/02/22 10:51:05;;;;;;;9.27;3.30;;;9.90;99.90;;;;;;5043100;28;21019;-73
2022/02/22 10:53:39;;;;;;;8.27;3.40;;;10.20;99.90;;;;;;5086034;27;1239859;-71
2022/02/22 10:56:08;;;;;;;11.70;3.53;;;10.10;99.90;;;;;;5120236;28;20168;-73
2022/02/22 10:58:35;;;;;;;6.37;3.20;;;10.20;99.90;;;;;;5121148;27;20434;-70
2022/02/22 11:01:02;;;;;;;4.90;2.97;;;10.30;99.90;;;;;;5121563;27;20950;-73
2022/02/22 11:03:29;;;;;;;6.80;3.00;;;10.20;99.90;;;;;;5113300;27;20526;-71
2022/02/22 11:05:54;;;;;;;5.83;3.40;;;10.30;99.90;;;;;;5113961;28;20745;-70
2022/02/22 11:08:29;;;;;;;10.93;2.77;;;10.20;99.90;;;;;;5108148;28;20435;-73
2022/02/22 11:11:08;;;;;;;5.30;2.70;;;10.20;99.90;;;;;;5100144;28;20351;-70
2022/02/22 11:13:34;;;;;;;11.33;3.30;;;10.10;99.90;;;;;;5108291;27;20488;-70
2022/02/22 11:16:15;;;;;;;11.40;2.90;;;10.10;99.90;;;;;;5121361;28;20753;-71
2022/02/22 11:18:51;;;;;;;6.50;2.90;;;10.00;99.90;;;;;;5101184;27;20220;-71
2022/02/22 11:21:19;;;;;;;6.73;2.63;;;9.90;99.90;;;;;;5109828;28;20405;-69
2022/02/22 11:23:46;;;;;;;4.83;2.60;;;9.90;99.90;;;;;;5108521;27;20506;-69
2022/02/22 11:26:21;;;;;;;4.60;2.80;;;9.80;99.90;;;;;;5104357;27;20766;-69
2022/02/22 11:28:52;;;;;;;4.87;3.00;;;9.80;99.90;;;;;;5101472;22;20488;-67
2022/02/22 11:31:20;;;;;;;7.07;3.57;;;9.90;99.90;;;;;;5038494;28;20509;-68
2022/02/22 11:33:53;;;;;;;4.90;2.53;;;10.10;99.90;;;;;;5039593;28;21270;-67
2022/02/22 11:36:35;;;;;;;8.33;3.13;;;10.20;99.90;;;;;;5039780;28;20393;-68
2022/02/22 11:39:03;;;;;;;6.07;2.70;;;10.40;99.90;;;;;;5033896;28;20526;-66
2022/02/22 11:41:34;;;;;;;6.07;3.00;;;10.50;99.90;;;;;;5019859;28;20892;-67
2022/02/22 11:44:02;;;;;;;5.93;2.87;;;10.50;99.90;;;;;;5018650;28;20562;-67
2022/02/22 11:46:47;;;;;;;7.37;2.53;;;10.60;99.90;;;;;;5019309;28;20512;-67
2022/02/22 11:49:28;;;;;;;6.10;2.50;;;10.70;99.90;;;;;;5019278;28;20466;-67
2022/02/22 11:52:00;;;;;;;6.43;2.83;;;10.70;99.90;;;;;;5018705;28;20457;-66
2022/02/22 11:54:26;;;;;;;4.77;2.87;;;10.50;99.90;;;;;;5019522;28;20415;-68
2022/02/22 11:57:10;;;;;;;5.80;2.53;;;10.40;99.90;;;;;;5020197;28;20426;-68
2022/02/22 11:59:59;;;;;;;9.43;3.10;;;10.30;99.90;;;;;;5020089;28;20450;-68
2022/02/22 12:02:41;;;;;;;10.03;2.90;;;10.50;99.90;;;;;;5019322;28;20409;-67
2022/02/22 12:05:25;;;;;;;4.37;2.57;;;10.50;99.90;;;;;;5003940;28;20430;-67
2022/02/22 12:08:02;;;;;;;7.07;3.07;;;10.70;99.90;;;;;;5005875;28;20426;-67
2022/02/22 12:10:31;;;;;;;6.70;2.93;;;10.70;99.90;;;;;;5006386;28;20771;-67
2022/02/22 12:13:15;;;;;;;5.33;2.43;;;10.80;99.90;;;;;;5003549;28;20712;-67
2022/02/22 12:15:42;;;;;;;7.83;3.00;;;11.00;99.90;;;;;;5006542;28;21038;-67
2022/02/22 12:18:27;;;;;;;7.93;3.33;;;10.90;99.90;;;;;;5005146;28;20437;-68
2022/02/22 12:20:55;;;;;;;5.37;2.87;;;11.00;99.90;;;;;;5006332;28;20444;-66
2022/02/22 12:23:25;;;;;;;6.90;2.97;;;10.70;99.90;;;;;;5005649;28;20427;-67
2022/02/22 12:25:53;;;;;;;7.63;2.93;;;10.60;99.90;;;;;;5005436;28;20415;-69
2022/02/22 12:28:21;;;;;;;8.88;3.17;;;10.80;99.90;;;;;;5006169;28;20505;-69
2022/02/22 12:30:48;;;;;;;6.57;2.77;;;11.20;99.90;;;;;;5004949;28;20183;-68
2022/02/22 12:33:16;;;;;;;11.03;2.87;;;11.20;99.90;;;;;;5004985;28;20954;-69
2022/02/22 12:35:44;;;;;;;8.67;2.57;;;11.00;99.90;;;;;;5004795;28;20570;-69
2022/02/22 12:38:19;;;;;;;4.90;2.97;;;11.20;99.90;;;;;;5005785;28;20892;-68
2022/02/22 12:40:49;;;;;;;7.67;3.27;;;11.40;99.90;;;;;;5011309;28;20421;-68
2022/02/22 12:43:15;;;;;;;6.50;2.70;;;11.40;99.90;;;;;;5025410;28;20509;-68
2022/02/22 12:45:43;;;;;;;9.43;2.87;;;11.20;99.90;;;;;;5014069;28;20426;-71
2022/02/22 12:48:10;;;;;;;6.67;2.60;;;11.30;99.90;;;;;;5005962;28;20461;-69
2022/02/22 12:50:36;;;;;;;10.10;3.20;;;11.40;99.90;;;;;;5013263;28;20710;-69
2022/02/22 12:53:02;;;;;;;10.00;2.87;;;11.50;99.90;;;;;;5005580;28;20450;-68
2022/02/22 12:55:28;;;;;;;8.83;3.43;;;11.50;99.90;;;;;;5005645;28;20274;-67